createdAt,value
2018-08-12T00:01:43.027Z,39.98
2018-08-12T00:04:14.673Z,40.02
2018-08-12T00:06:46.203Z,39.52
2018-08-12T00:09:17.710Z,39.71
2018-08-12T00:11:49.310Z,39.73
2018-08-12T00:14:20.769Z,39.31
2018-08-12T00:16:52.337Z,39.87
2018-08-12T00:19:23.744Z,39.95
2018-08-12T00:21:55.449Z,40.25
2018-08-12T00:24:26.850Z,40.11
2018-08-12T00:26:58.420Z,40.06
2018-08-12T00:29:29.830Z,39.97
2018-08-12T00:32:01.640Z,40.08
2018-08-12T00:34:33.209Z,40.12
2018-08-12T00:37:04.764Z,40.30
2018-08-12T00:39:36.305Z,39.03
2018-08-12T00:42:07.832Z,39.81
2018-08-12T00:44:39.573Z,39.52
2018-08-12T00:47:17.810Z,40.56
2018-08-12T00:49:49.376Z,40.22
2018-08-12T00:52:20.873Z,39.76
2018-08-12T00:54:52.570Z,41.19
2018-08-12T00:57:24.200Z,39.90
2018-08-12T00:59:55.723Z,39.99
2018-08-12T01:02:27.329Z,39.93
2018-08-12T01:04:58.804Z,40.08
2018-08-12T01:07:30.665Z,40.32
2018-08-12T01:10:02.205Z,39.86
2018-08-12T01:12:33.702Z,39.16
2018-08-12T01:15:06.553Z,40.49
2018-08-12T01:17:38.203Z,40.04
2018-08-12T01:20:12.357Z,39.97
2018-08-12T01:22:44.000Z,40.07
2018-08-12T01:25:15.634Z,40.59
2018-08-12T01:27:47.185Z,39.33
2018-08-12T01:30:20.724Z,40.01
2018-08-12T01:32:52.371Z,40.52
2018-08-12T01:35:23.796Z,40.33
2018-08-12T01:37:55.450Z,40.31
2018-08-12T01:40:26.847Z,40.32
2018-08-12T01:42:58.813Z,40.04
2018-08-12T01:45:30.319Z,40.18
2018-08-12T01:48:01.830Z,40.54
2018-08-12T01:50:33.409Z,40.38
2018-08-12T01:53:04.891Z,40.00
2018-08-12T01:55:36.732Z,40.39
2018-08-12T01:58:08.587Z,40.03
2018-08-12T02:00:40.001Z,40.57
2018-08-12T02:03:11.686Z,40.93
2018-08-12T02:05:43.396Z,40.61
2018-08-12T02:08:14.896Z,40.15
2018-08-12T02:10:46.254Z,40.71
2018-08-12T02:13:17.792Z,40.59
2018-08-12T02:15:49.385Z,40.40
2018-08-12T02:18:21.214Z,40.77
2018-08-12T02:20:52.702Z,40.88
2018-08-12T02:23:24.217Z,39.61
2018-08-12T02:25:55.781Z,40.35
2018-08-12T02:28:27.412Z,40.82
2018-08-12T02:30:58.843Z,40.90
2018-08-12T02:33:30.262Z,40.47
2018-08-12T02:36:01.751Z,40.76
2018-08-12T02:38:33.299Z,40.57
2018-08-12T02:41:04.901Z,40.55
2018-08-12T02:43:36.580Z,41.18
2018-08-12T02:46:08.211Z,40.30
2018-08-12T02:48:40.192Z,40.83
2018-08-12T02:51:11.704Z,40.69
2018-08-12T02:53:43.199Z,40.77
2018-08-12T02:56:14.736Z,40.77
2018-08-12T02:58:46.323Z,40.73
2018-08-12T03:01:17.811Z,41.08
2018-08-12T03:03:49.379Z,40.64
2018-08-12T03:06:20.876Z,41.45
2018-08-12T03:08:52.425Z,41.02
2018-08-12T03:11:23.906Z,40.51
2018-08-12T03:13:54.616Z,40.60
2018-08-12T03:16:26.206Z,39.92
2018-08-12T03:18:57.701Z,41.55
2018-08-12T03:21:29.409Z,40.59
2018-08-12T03:24:00.764Z,41.14
2018-08-12T03:26:32.608Z,40.73
2018-08-12T03:29:04.315Z,40.81
2018-08-12T03:31:35.736Z,41.00
2018-08-12T03:34:07.350Z,40.61
2018-08-12T03:36:38.749Z,41.21
2018-08-12T03:39:13.392Z,41.01
2018-08-12T03:41:44.898Z,40.97
2018-08-12T03:44:16.415Z,40.83
2018-08-12T03:46:47.868Z,40.64
2018-08-12T03:49:19.528Z,40.98
2018-08-12T03:51:50.997Z,40.88
2018-08-12T03:54:22.780Z,40.72
2018-08-12T03:56:54.419Z,41.16
2018-08-12T03:59:25.940Z,40.84
2018-08-12T04:01:56.576Z,41.38
2018-08-12T04:04:28.208Z,40.87
2018-08-12T04:06:59.746Z,41.08
2018-08-12T04:09:31.433Z,41.25
2018-08-12T04:12:02.772Z,41.37
2018-08-12T04:14:34.033Z,41.17
2018-08-12T04:17:05.241Z,41.66
2018-08-12T04:19:36.803Z,41.51
2018-08-12T04:22:08.515Z,41.45
2018-08-12T04:24:40.225Z,41.79
2018-08-12T04:27:11.735Z,41.71
2018-08-12T04:29:43.018Z,41.63
2018-08-12T04:32:14.326Z,41.58
2018-08-12T04:34:46.756Z,41.21
2018-08-12T04:37:18.392Z,41.41
2018-08-12T04:39:50.198Z,41.32
2018-08-12T04:42:21.678Z,41.54
2018-08-12T04:44:53.215Z,41.59
2018-08-12T04:47:24.730Z,41.50
2018-08-12T04:49:56.563Z,41.50
2018-08-12T04:52:27.964Z,41.42
2018-08-12T04:54:58.550Z,41.61
2018-08-12T04:57:30.183Z,41.16
2018-08-12T05:00:01.704Z,41.04
2018-08-12T05:02:33.205Z,41.02
2018-08-12T05:05:04.710Z,41.25
2018-08-12T05:07:36.440Z,41.26
2018-08-12T05:10:09.330Z,41.33
2018-08-12T05:12:40.804Z,40.82
2018-08-12T05:15:12.304Z,41.26
2018-08-12T05:17:45.356Z,41.55
2018-08-12T05:20:16.856Z,41.16
2018-08-12T05:22:48.407Z,41.20
2018-08-12T05:25:19.985Z,40.77
2018-08-12T05:27:51.545Z,41.00
2018-08-12T05:30:22.895Z,41.17
2018-08-12T05:32:54.553Z,41.11
2018-08-12T05:35:26.189Z,41.21
2018-08-12T05:37:57.743Z,40.72
2018-08-12T05:40:29.432Z,40.55
2018-08-12T05:43:00.878Z,40.37
2018-08-12T05:45:32.449Z,40.30
2018-08-12T05:48:04.317Z,40.63
2018-08-12T05:50:36.371Z,40.55
2018-08-12T05:53:07.800Z,40.06
2018-08-12T05:55:39.429Z,40.73
2018-08-12T05:58:10.766Z,40.05
2018-08-12T06:00:42.308Z,39.71
2018-08-12T06:03:13.766Z,39.55
2018-08-12T06:05:44.776Z,40.28
2018-08-12T06:08:15.743Z,39.77
2018-08-12T06:10:47.214Z,40.01
2018-08-12T06:13:18.755Z,39.66
2018-08-12T06:15:50.261Z,40.26
2018-08-12T06:18:21.550Z,39.72
2018-08-12T06:20:53.214Z,40.13
2018-08-12T06:23:24.693Z,40.51
2018-08-12T06:25:56.212Z,40.15
2018-08-12T06:28:27.741Z,40.37
2018-08-12T06:30:59.289Z,39.98
2018-08-12T06:33:31.208Z,40.04
2018-08-12T06:36:02.706Z,40.66
2018-08-12T06:38:34.302Z,39.94
2018-08-12T06:41:06.319Z,40.09
2018-08-12T06:43:37.893Z,39.56
2018-08-12T06:46:09.422Z,39.65
2018-08-12T06:48:40.830Z,39.97
2018-08-12T06:51:12.378Z,39.14
2018-08-12T06:53:43.861Z,38.89
2018-08-12T06:56:15.580Z,38.77
2018-08-12T06:58:47.225Z,38.93
2018-08-12T07:01:18.746Z,38.57
2018-08-12T07:03:50.014Z,38.68
2018-08-12T07:06:21.362Z,39.01
2018-08-12T07:08:52.846Z,38.49
2018-08-12T07:11:24.477Z,38.23
2018-08-12T07:13:55.979Z,39.18
2018-08-12T07:16:27.640Z,39.13
2018-08-12T07:18:59.195Z,38.32
2018-08-12T07:21:30.725Z,38.36
2018-08-12T07:24:02.596Z,38.54
2018-08-12T07:26:34.309Z,38.91
2018-08-12T07:29:05.780Z,38.20
2018-08-12T07:31:37.317Z,38.20
2018-08-12T07:34:08.883Z,38.19
2018-08-12T07:36:40.897Z,37.89
2018-08-12T07:39:12.694Z,38.43
2018-08-12T07:41:44.693Z,37.72
2018-08-12T07:44:16.408Z,37.74
2018-08-12T07:46:47.798Z,38.19
2018-08-12T07:49:19.344Z,37.65
2018-08-12T07:51:50.770Z,37.42
2018-08-12T07:54:22.446Z,37.98
2018-08-12T07:56:54.200Z,38.17
2018-08-12T07:59:25.759Z,37.21
2018-08-12T08:01:57.422Z,38.35
2018-08-12T08:04:28.771Z,38.75
2018-08-12T08:07:00.433Z,39.08
2018-08-12T08:09:32.223Z,39.56
2018-08-12T08:12:03.763Z,38.86
2018-08-12T08:14:35.312Z,38.52
2018-08-12T08:17:06.824Z,39.12
2018-08-12T08:19:38.445Z,38.84
2018-08-12T08:22:10.193Z,38.52
2018-08-12T08:24:41.752Z,38.46
2018-08-12T08:27:13.699Z,39.00
2018-08-12T08:29:45.416Z,38.73
2018-08-12T08:32:17.092Z,39.12
2018-08-12T08:34:48.672Z,38.54
2018-08-12T08:37:19.855Z,38.55
2018-08-12T08:39:54.558Z,38.59
2018-08-12T08:42:26.218Z,38.71
2018-08-12T08:44:57.849Z,39.61
2018-08-12T08:47:29.543Z,38.73
2018-08-12T08:50:01.300Z,39.24
2018-08-12T08:52:33.294Z,38.39
2018-08-12T08:55:05.417Z,38.57
2018-08-12T08:57:37.208Z,38.43
2018-08-12T09:00:13.985Z,38.96
2018-08-12T09:02:46.874Z,39.18
2018-08-12T09:05:18.963Z,38.33
2018-08-12T09:07:51.224Z,38.46
2018-08-12T09:10:22.987Z,39.27
2018-08-12T09:12:54.684Z,38.63
2018-08-12T09:15:26.232Z,38.58
2018-08-12T09:17:57.781Z,38.29
2018-08-12T09:20:29.441Z,38.54
2018-08-12T09:23:01.455Z,37.64
2018-08-12T09:25:32.891Z,38.30
2018-08-12T09:28:03.621Z,38.03
2018-08-12T09:30:35.297Z,37.67
2018-08-12T09:33:07.202Z,37.99
2018-08-12T09:35:38.838Z,37.68
2018-08-12T09:38:10.308Z,37.66
2018-08-12T09:40:41.764Z,36.95
2018-08-12T09:43:13.449Z,37.74
2018-08-12T09:45:44.900Z,36.68
2018-08-12T09:48:15.593Z,38.04
2018-08-12T09:50:47.204Z,37.14
2018-08-12T09:53:18.725Z,37.04
2018-08-12T09:55:49.913Z,37.74
2018-08-12T09:58:20.413Z,34.82
2018-08-12T10:00:51.966Z,37.50
2018-08-12T10:03:23.636Z,36.87
2018-08-12T10:05:55.215Z,37.66
2018-08-12T10:08:26.682Z,37.41
2018-08-12T10:10:58.183Z,37.19
2018-08-12T10:13:29.762Z,37.50
2018-08-12T10:16:01.437Z,37.24
2018-08-12T10:18:33.624Z,38.06
2018-08-12T10:21:05.199Z,37.44
2018-08-12T10:23:37.218Z,37.08
2018-08-12T10:26:08.696Z,37.93
2018-08-12T10:28:40.318Z,36.59
2018-08-12T10:31:11.903Z,36.42
2018-08-12T10:33:42.577Z,38.22
2018-08-12T10:36:14.214Z,37.86
2018-08-12T10:38:45.699Z,37.83
2018-08-12T10:41:17.299Z,38.24
2018-08-12T10:43:48.797Z,37.57
2018-08-12T10:46:20.454Z,37.01
2018-08-12T10:48:52.045Z,38.57
2018-08-12T10:51:23.738Z,37.36
2018-08-12T10:53:55.354Z,37.26
2018-08-12T10:56:26.827Z,37.25
2018-08-12T10:58:58.460Z,37.55
2018-08-12T11:01:29.790Z,37.86
2018-08-12T11:04:01.424Z,37.48
2018-08-12T11:06:32.992Z,37.07
2018-08-12T11:09:05.392Z,37.90
2018-08-12T11:11:36.993Z,37.38
2018-08-12T11:14:08.766Z,37.55
2018-08-12T11:16:40.675Z,37.08
2018-08-12T11:19:12.208Z,37.89
2018-08-12T11:21:43.789Z,36.54
2018-08-12T11:24:15.356Z,37.63
2018-08-12T11:26:47.012Z,38.12
2018-08-12T11:29:18.689Z,38.32
2018-08-12T11:31:50.322Z,37.75
2018-08-12T11:34:21.739Z,37.96
2018-08-12T11:36:53.422Z,36.92
2018-08-12T11:39:24.857Z,36.87
2018-08-12T11:41:56.424Z,36.59
2018-08-12T11:44:27.902Z,37.58
2018-08-12T11:46:58.636Z,37.60
2018-08-12T11:49:30.215Z,36.45
2018-08-12T11:52:01.723Z,36.83
2018-08-12T11:54:33.368Z,38.16
2018-08-12T11:57:07.866Z,37.86
2018-08-12T11:59:39.452Z,38.35
2018-08-12T12:02:11.847Z,37.92
2018-08-12T12:04:43.680Z,37.90
2018-08-12T12:07:15.319Z,38.35
2018-08-12T12:09:46.813Z,37.93
2018-08-12T12:12:18.424Z,38.02
2018-08-12T12:14:49.986Z,38.05
2018-08-12T12:17:21.575Z,38.42
2018-08-12T12:19:53.235Z,38.23
2018-08-12T12:22:24.771Z,37.84
2018-08-12T12:25:02.768Z,38.06
2018-08-12T12:27:33.787Z,37.03
2018-08-12T12:30:06.028Z,37.65
2018-08-12T12:32:37.690Z,37.63
2018-08-12T12:35:09.356Z,37.88
2018-08-12T12:37:41.322Z,36.67
2018-08-12T12:40:15.606Z,37.00
2018-08-12T12:42:47.643Z,37.28
2018-08-12T12:45:19.362Z,36.36
2018-08-12T12:47:50.850Z,37.36
2018-08-12T12:50:24.816Z,36.65
2018-08-12T12:52:56.305Z,36.67
2018-08-12T12:55:27.852Z,36.75
2018-08-12T12:57:59.423Z,37.11
2018-08-12T13:00:31.006Z,36.75
2018-08-12T13:03:02.642Z,35.85
2018-08-12T13:05:34.217Z,37.15
2018-08-12T13:08:05.716Z,35.88
2018-08-12T13:10:37.316Z,36.57
2018-08-12T13:13:08.793Z,36.80
2018-08-12T13:15:40.363Z,36.72
2018-08-12T13:18:11.815Z,38.42
2018-08-12T13:20:43.448Z,37.75
2018-08-12T13:23:15.210Z,37.58
2018-08-12T13:25:46.764Z,38.20
2018-08-12T13:28:18.323Z,37.94
2018-08-12T13:30:49.984Z,37.76
2018-08-12T13:33:21.682Z,36.20
2018-08-12T13:35:53.221Z,38.62
2018-08-12T13:38:24.697Z,38.02
2018-08-12T13:41:01.281Z,38.50
2018-08-12T13:43:32.804Z,35.77
2018-08-12T13:46:04.379Z,37.56
2018-08-12T13:48:35.872Z,38.43
2018-08-12T13:51:07.487Z,38.82
2018-08-12T13:53:39.001Z,38.12
2018-08-12T13:56:10.644Z,38.20
2018-08-12T13:58:42.213Z,38.91
2018-08-12T14:01:13.752Z,37.84
2018-08-12T14:03:45.416Z,38.54
2018-08-12T14:06:16.726Z,37.92
2018-08-12T14:08:48.329Z,38.66
2018-08-12T14:14:24.848Z,38.70
2018-08-12T14:16:56.405Z,38.85
2018-08-12T14:19:28.228Z,38.40
2018-08-12T14:21:59.808Z,37.47
2018-08-12T14:24:31.411Z,39.20
2018-08-12T14:27:02.902Z,38.87
2018-08-12T14:29:33.607Z,38.05
2018-08-12T14:32:05.432Z,34.78
2018-08-12T14:34:36.907Z,37.62
2018-08-12T14:37:07.662Z,38.73
2018-08-12T14:39:39.302Z,38.86
2018-08-12T14:42:10.877Z,38.73
2018-08-12T14:44:42.615Z,38.68
2018-08-12T14:47:13.900Z,38.11
2018-08-12T14:49:45.344Z,38.27
2018-08-12T14:52:17.341Z,36.33
2018-08-12T14:54:48.909Z,39.08
2018-08-12T14:57:19.612Z,37.52
2018-08-12T14:59:51.216Z,38.13
2018-08-12T15:02:22.753Z,37.56
2018-08-12T15:04:53.828Z,37.16
2018-08-12T15:07:25.293Z,38.40
2018-08-12T15:09:56.867Z,38.39
2018-08-12T15:12:28.686Z,38.19
2018-08-12T15:15:00.486Z,37.54
2018-08-12T15:17:32.029Z,37.64
2018-08-12T15:20:03.723Z,38.84
2018-08-12T15:22:35.473Z,38.35
2018-08-12T15:25:09.319Z,38.03
2018-08-12T15:27:40.799Z,38.39
2018-08-12T15:30:12.281Z,38.92
2018-08-12T15:32:43.813Z,38.60
2018-08-12T15:35:15.478Z,38.70
2018-08-12T15:37:47.021Z,38.89
2018-08-12T15:40:18.666Z,38.96
2018-08-12T15:42:50.511Z,38.46
2018-08-12T15:45:22.226Z,38.59
2018-08-12T15:55:23.707Z,38.53
2018-08-12T15:57:54.761Z,38.93
2018-08-12T16:00:25.800Z,38.74
2018-08-12T16:02:56.867Z,38.71
2018-08-12T16:05:28.385Z,38.40
2018-08-12T16:07:59.812Z,38.98
2018-08-12T16:10:31.775Z,38.65
2018-08-12T16:13:03.397Z,38.80
2018-08-12T16:15:34.869Z,39.05
2018-08-12T16:18:06.462Z,39.18
2018-08-12T16:20:37.765Z,38.97
2018-08-12T16:23:09.453Z,39.05
2018-08-12T16:25:40.794Z,38.53
2018-08-12T16:28:12.348Z,38.87
2018-08-12T16:30:44.460Z,39.04
2018-08-12T16:33:15.887Z,38.84
2018-08-12T16:35:47.591Z,39.35
2018-08-12T16:38:19.066Z,38.86
2018-08-12T16:40:50.675Z,39.14
2018-08-12T16:43:22.212Z,38.99
2018-08-12T16:45:53.704Z,39.05
2018-08-12T16:48:25.242Z,39.18
2018-08-12T16:50:56.711Z,37.08
2018-08-12T16:53:28.352Z,37.54
2018-08-12T16:55:59.800Z,38.65
2018-08-12T16:58:31.222Z,38.81
2018-08-12T17:01:02.769Z,38.30
2018-08-12T17:03:34.361Z,38.62
2018-08-12T17:06:05.834Z,39.02
2018-08-12T17:08:37.218Z,39.09
2018-08-12T17:11:08.703Z,39.31
2018-08-12T17:13:40.077Z,39.06
2018-08-12T17:16:11.703Z,39.35
2018-08-12T17:18:43.669Z,39.23
2018-08-12T17:21:15.338Z,38.92
2018-08-12T17:23:46.826Z,38.85
2018-08-12T17:26:18.388Z,39.23
2018-08-12T17:28:49.819Z,39.19
2018-08-12T17:31:21.429Z,39.19
2018-08-12T17:33:53.010Z,39.50
2018-08-12T17:36:24.654Z,39.09
2018-08-12T17:38:56.542Z,38.58
2018-08-12T17:41:28.196Z,38.80
2018-08-12T17:43:59.713Z,38.73
2018-08-12T17:46:31.365Z,38.49
2018-08-12T17:49:02.925Z,38.75
2018-08-12T17:51:33.594Z,38.78
2018-08-12T17:54:04.987Z,38.49
2018-08-12T17:56:36.694Z,38.53
2018-08-12T17:59:08.210Z,38.51
2018-08-12T18:01:39.681Z,38.82
2018-08-12T18:04:11.221Z,38.96
2018-08-12T18:06:43.230Z,38.37
2018-08-12T18:09:14.758Z,38.60
2018-08-12T18:11:46.209Z,38.87
2018-08-12T18:14:17.756Z,38.64
2018-08-12T18:16:49.220Z,38.67
2018-08-12T18:19:20.697Z,38.63
2018-08-12T18:21:51.932Z,38.60
2018-08-12T18:24:22.606Z,39.09
2018-08-12T18:26:54.294Z,38.40
2018-08-12T18:29:25.750Z,38.87
2018-08-12T18:31:57.202Z,38.55
2018-08-12T18:34:28.761Z,38.35
2018-08-12T18:36:59.778Z,38.83
2018-08-12T18:39:30.801Z,39.53
2018-08-12T18:42:02.243Z,38.91
2018-08-12T18:44:33.726Z,38.73
2018-08-12T18:47:05.301Z,38.47
2018-08-12T18:49:36.788Z,38.63
2018-08-12T18:52:08.326Z,38.51
2018-08-12T18:54:39.792Z,38.24
2018-08-12T18:57:11.336Z,38.51
2018-08-12T18:59:42.807Z,38.12
2018-08-12T19:02:14.303Z,38.53
2018-08-12T19:04:45.808Z,38.29
2018-08-12T19:07:17.221Z,38.48
2018-08-12T19:09:48.527Z,38.34
2018-08-12T19:12:19.644Z,37.39
2018-08-12T19:14:50.720Z,38.38
2018-08-12T19:17:22.218Z,38.29
2018-08-12T19:19:53.732Z,38.14
2018-08-12T19:22:25.324Z,38.40
2018-08-12T19:24:56.745Z,38.44
2018-08-12T19:27:28.226Z,38.01
2018-08-12T19:29:59.728Z,38.87
2018-08-12T19:32:31.201Z,38.10
2018-08-12T19:35:02.684Z,38.20
2018-08-12T19:37:34.399Z,38.34
2018-08-12T19:40:06.637Z,37.31
2018-08-12T19:42:38.211Z,38.11
2018-08-12T19:45:11.769Z,38.22
2018-08-12T19:47:43.382Z,38.67
2018-08-12T19:50:14.779Z,39.14
2018-08-12T19:52:46.217Z,38.35
2018-08-12T19:55:17.729Z,38.49
2018-08-12T20:00:59.742Z,37.91
2018-08-12T20:03:30.758Z,38.49
2018-08-12T20:06:02.576Z,38.77
2018-08-12T20:08:33.727Z,39.01
2018-08-12T20:11:04.817Z,39.01
2018-08-12T20:13:35.808Z,39.19
2018-08-12T20:16:06.795Z,39.39
2018-08-12T20:18:38.226Z,39.43
2018-08-12T20:21:09.746Z,38.87
2018-08-12T20:23:41.422Z,38.44
2018-08-12T20:26:12.781Z,38.55
2018-08-12T20:28:44.458Z,38.61
2018-08-12T20:31:15.900Z,37.78
2018-08-12T20:33:46.582Z,38.74
2018-08-12T20:36:17.981Z,37.82
2018-08-12T20:38:49.606Z,38.38
2018-08-12T20:41:21.014Z,38.44
2018-08-12T20:43:52.739Z,37.60
2018-08-12T20:46:24.319Z,38.53
2018-08-12T20:48:56.211Z,36.99
2018-08-12T20:51:27.728Z,37.03
2018-08-12T20:53:59.300Z,38.87
2018-08-12T20:56:30.747Z,38.65
2018-08-12T20:59:02.396Z,39.16
2018-08-12T21:01:34.035Z,39.50
2018-08-12T21:04:05.661Z,39.29
2018-08-12T21:06:37.367Z,39.08
2018-08-12T21:09:11.728Z,38.96
2018-08-12T21:11:43.402Z,39.14
2018-08-12T21:14:14.833Z,39.36
2018-08-12T21:16:46.301Z,39.37
2018-08-12T21:19:17.673Z,38.53
2018-08-12T21:21:48.991Z,39.18
2018-08-12T21:24:20.612Z,38.98
2018-08-12T21:26:52.208Z,38.52
2018-08-12T21:29:23.716Z,38.74
2018-08-12T21:31:55.310Z,39.67
2018-08-12T21:34:26.725Z,39.14
2018-08-12T21:36:58.386Z,38.82
2018-08-12T21:39:29.775Z,39.38
2018-08-12T21:42:01.300Z,39.06
2018-08-12T21:44:33.224Z,38.88
2018-08-12T21:47:04.681Z,39.55
2018-08-12T21:49:36.337Z,39.06
2018-08-12T21:52:07.743Z,38.49
2018-08-12T21:54:39.313Z,39.45
2018-08-12T21:57:10.753Z,39.42
2018-08-12T21:59:42.301Z,39.28
2018-08-12T22:02:13.713Z,38.90
2018-08-12T22:04:45.226Z,39.48
2018-08-12T22:07:16.758Z,38.81
2018-08-12T22:09:48.315Z,39.08
2018-08-12T22:12:19.694Z,38.57
2018-08-12T22:14:50.972Z,38.80
2018-08-12T22:17:22.356Z,38.66
2018-08-12T22:19:53.752Z,38.74
2018-08-12T22:22:25.729Z,39.12
2018-08-12T22:24:57.195Z,39.53
2018-08-12T22:27:28.700Z,39.01
2018-08-12T22:30:00.335Z,39.59
2018-08-12T22:32:31.765Z,39.01
2018-08-12T22:35:03.313Z,39.06
2018-08-12T22:37:34.774Z,38.74
2018-08-12T22:40:07.688Z,38.95
2018-08-12T22:42:39.214Z,38.25
2018-08-12T22:45:12.378Z,39.27
2018-08-12T22:47:43.741Z,39.02
2018-08-12T22:50:15.425Z,38.85
2018-08-12T22:52:46.851Z,38.91
2018-08-12T22:55:18.381Z,38.71
2018-08-12T22:57:49.716Z,39.23
2018-08-12T23:00:21.913Z,39.13
2018-08-12T23:02:52.521Z,39.32
2018-08-12T23:05:23.879Z,38.94
2018-08-12T23:07:55.534Z,38.81
2018-08-12T23:10:26.709Z,38.69
2018-08-12T23:12:58.300Z,39.44
2018-08-12T23:16:54.702Z,39.03
2018-08-12T23:19:25.975Z,39.89
2018-08-12T23:21:57.395Z,40.19
2018-08-12T23:24:28.782Z,39.53
2018-08-12T23:27:00.313Z,39.91
2018-08-12T23:29:31.805Z,39.27
2018-08-12T23:32:03.313Z,39.73
2018-08-12T23:34:34.780Z,39.26
2018-08-12T23:37:06.712Z,39.15
2018-08-12T23:39:38.696Z,39.25
2018-08-12T23:42:10.197Z,38.99
2018-08-12T23:44:41.680Z,39.19
2018-08-12T23:47:12.993Z,39.91
2018-08-12T23:49:44.517Z,39.65
2018-08-12T23:52:15.856Z,38.90
2018-08-12T23:54:47.396Z,38.90
2018-08-12T23:57:18.789Z,39.51
2018-08-12T23:59:49.894Z,38.56
